createdAt,value
2022-10-16T00:03:54.147Z,15.30
2022-10-16T00:08:47.218Z,15.30
2022-10-16T00:13:41.301Z,15.10
2022-10-16T00:18:34.113Z,14.90
2022-10-16T00:23:28.232Z,14.80
2022-10-16T00:28:20.824Z,14.60
2022-10-16T00:33:13.188Z,14.50
2022-10-16T00:38:05.695Z,14.40
2022-10-16T00:42:58.186Z,14.40
2022-10-16T00:47:52.893Z,14.40
2022-10-16T00:52:49.667Z,14.40
2022-10-16T00:57:44.772Z,14.40
2022-10-16T01:02:37.817Z,14.50
2022-10-16T01:08:00.121Z,14.60
2022-10-16T01:13:09.475Z,14.70
2022-10-16T01:18:34.325Z,14.80
2022-10-16T01:23:26.824Z,14.90
2022-10-16T01:28:23.592Z,15.00
2022-10-16T01:33:22.665Z,15.10
2022-10-16T01:44:06.486Z,15.40
2022-10-16T01:49:01.199Z,15.60
2022-10-16T01:53:56.806Z,15.70
2022-10-16T01:58:55.563Z,15.80
2022-10-16T02:03:52.083Z,15.90
2022-10-16T02:08:45.993Z,15.80
2022-10-16T02:13:47.748Z,15.80
2022-10-16T02:18:40.959Z,15.90
2022-10-16T02:23:51.260Z,15.90
2022-10-16T02:28:48.367Z,16.00
2022-10-16T02:33:44.122Z,16.10
2022-10-16T02:38:37.628Z,16.10
2022-10-16T02:43:30.106Z,16.10
2022-10-16T02:48:23.389Z,16.10
2022-10-16T02:53:17.216Z,16.20
2022-10-16T02:58:10.135Z,16.10
2022-10-16T03:03:02.544Z,16.10
2022-10-16T03:07:54.919Z,16.00
2022-10-16T03:12:47.536Z,15.90
2022-10-16T03:17:40.283Z,15.80
2022-10-16T03:22:33.016Z,15.80
2022-10-16T03:27:25.688Z,15.60
2022-10-16T03:32:18.485Z,15.50
2022-10-16T03:37:11.325Z,15.30
2022-10-16T03:42:04.153Z,15.20
2022-10-16T03:46:56.599Z,15.10
2022-10-16T03:51:48.993Z,15.10
2022-10-16T03:56:41.814Z,15.00
2022-10-16T04:01:34.169Z,14.90
2022-10-16T04:06:26.963Z,14.80
2022-10-16T04:11:19.483Z,14.90
2022-10-16T04:16:11.856Z,14.90
2022-10-16T04:21:08.574Z,14.90
2022-10-16T04:26:01.951Z,14.80
2022-10-16T04:30:54.889Z,14.80
2022-10-16T04:35:47.406Z,14.90
2022-10-16T04:40:40.192Z,14.90
2022-10-16T04:45:33.356Z,14.90
2022-10-16T04:50:26.777Z,14.90
2022-10-16T04:55:31.860Z,14.70
2022-10-16T05:00:24.426Z,14.70
2022-10-16T05:05:16.977Z,14.80
2022-10-16T05:10:09.461Z,14.90
2022-10-16T05:15:01.902Z,14.90
2022-10-16T05:19:54.778Z,14.90
2022-10-16T05:24:47.280Z,15.00
2022-10-16T05:29:39.749Z,15.00
2022-10-16T05:34:32.331Z,14.90
2022-10-16T05:39:24.855Z,14.90
2022-10-16T05:44:17.456Z,14.80
2022-10-16T05:49:09.891Z,14.80
2022-10-16T05:54:34.956Z,14.80
2022-10-16T06:05:05.351Z,15.00
2022-10-16T06:09:58.910Z,15.30
2022-10-16T06:14:52.197Z,15.60
2022-10-16T06:19:44.754Z,15.80
2022-10-16T06:24:37.313Z,15.80
2022-10-16T06:29:30.233Z,16.00
2022-10-16T06:34:23.127Z,16.30
2022-10-16T06:39:15.994Z,16.50
2022-10-16T06:44:09.218Z,16.70
2022-10-16T06:49:02.074Z,16.90
2022-10-16T06:54:05.281Z,17.30
2022-10-16T06:58:57.691Z,17.60
2022-10-16T07:03:50.393Z,18.00
2022-10-16T07:08:45.179Z,18.20
2022-10-16T07:13:39.840Z,18.00
2022-10-16T07:18:33.478Z,17.70
2022-10-16T07:23:25.804Z,17.70
2022-10-16T07:28:19.681Z,17.90
2022-10-16T07:33:12.184Z,18.10
2022-10-16T07:38:12.854Z,18.10
2022-10-16T07:43:07.281Z,18.10
2022-10-16T07:47:59.826Z,18.00
2022-10-16T07:52:53.259Z,18.00
2022-10-16T07:57:45.729Z,18.10
2022-10-16T08:02:38.074Z,18.00
2022-10-16T08:07:30.633Z,18.10
2022-10-16T08:12:23.003Z,18.30
2022-10-16T08:17:16.898Z,18.80
2022-10-16T08:22:09.461Z,19.10
2022-10-16T08:27:04.099Z,19.00
2022-10-16T08:31:56.741Z,18.80
2022-10-16T08:36:49.080Z,19.20
2022-10-16T08:41:57.086Z,19.80
2022-10-16T08:47:45.668Z,20.40
2022-10-16T08:53:53.478Z,20.80
2022-10-16T09:00:00.775Z,21.20
2022-10-16T09:06:08.187Z,21.80
2022-10-16T09:12:16.556Z,24.40
2022-10-16T09:18:24.317Z,25.20
2022-10-16T09:24:33.807Z,27.00
2022-10-16T09:30:44.088Z,29.70
2022-10-16T09:36:52.884Z,30.90
2022-10-16T09:42:59.586Z,30.00
2022-10-16T09:49:07.488Z,27.10
2022-10-16T09:55:15.904Z,25.70
2022-10-16T10:01:23.304Z,25.30
2022-10-16T10:07:30.806Z,27.70
2022-10-16T10:13:38.384Z,27.80
2022-10-16T10:19:45.944Z,27.20
2022-10-16T10:25:55.137Z,27.20
2022-10-16T10:32:03.346Z,26.80
2022-10-16T10:38:10.730Z,26.20
2022-10-16T10:43:46.276Z,28.20
2022-10-16T10:49:04.538Z,27.70
2022-10-16T10:54:14.292Z,27.00
2022-10-16T10:59:28.373Z,26.70
2022-10-16T11:04:56.571Z,26.80
2022-10-16T11:10:23.815Z,27.20
2022-10-16T11:15:36.872Z,27.30
2022-10-16T11:20:48.511Z,29.40
2022-10-16T11:25:46.498Z,30.00
2022-10-16T11:30:49.309Z,30.30
2022-10-16T11:41:36.704Z,28.20
2022-10-16T11:46:34.799Z,26.90
2022-10-16T11:51:54.732Z,26.20
2022-10-16T11:56:57.808Z,26.20
2022-10-16T12:07:45.749Z,26.00
2022-10-16T12:12:43.725Z,26.20
2022-10-16T12:17:39.732Z,26.20
2022-10-16T12:22:40.802Z,25.90
2022-10-16T12:27:39.560Z,25.80
2022-10-16T12:32:52.565Z,25.70
2022-10-16T12:38:08.151Z,25.60
2022-10-16T12:43:03.539Z,25.50
2022-10-16T12:47:57.499Z,25.60
2022-10-16T12:52:50.383Z,25.90
2022-10-16T13:05:05.435Z,25.80
2022-10-16T13:10:31.137Z,25.50
2022-10-16T13:15:50.121Z,25.00
2022-10-16T13:21:12.040Z,24.80
2022-10-16T13:26:15.199Z,24.70
2022-10-16T13:31:25.282Z,24.40
2022-10-16T13:36:47.936Z,24.20
2022-10-16T13:41:41.759Z,24.00
2022-10-16T13:46:35.544Z,23.70
2022-10-16T13:51:29.660Z,23.40
2022-10-16T13:56:24.446Z,23.40
2022-10-16T14:01:27.319Z,23.60
2022-10-16T14:06:23.956Z,23.80
2022-10-16T14:17:55.043Z,23.90
2022-10-16T14:22:47.799Z,23.60
2022-10-16T14:27:41.984Z,23.40
2022-10-16T14:32:44.460Z,23.30
2022-10-16T14:37:37.851Z,23.20
2022-10-16T14:42:30.668Z,23.10
2022-10-16T14:47:31.393Z,22.90
2022-10-16T14:52:29.071Z,22.80
2022-10-16T14:57:33.501Z,22.60
2022-10-16T15:02:57.345Z,22.50
2022-10-16T15:07:54.218Z,22.30
2022-10-16T15:12:52.187Z,22.10
2022-10-16T15:17:46.131Z,21.90
2022-10-16T15:22:40.037Z,21.70
2022-10-16T15:27:42.532Z,21.50
2022-10-16T15:32:39.437Z,21.30
2022-10-16T15:37:33.989Z,21.10
2022-10-16T15:42:29.102Z,21.00
2022-10-16T15:47:23.783Z,20.70
2022-10-16T15:52:17.337Z,20.40
2022-10-16T15:57:14.585Z,20.20
2022-10-16T16:02:13.796Z,19.90
2022-10-16T16:07:08.927Z,19.80
2022-10-16T16:12:02.329Z,19.60
2022-10-16T16:17:04.136Z,19.50
2022-10-16T16:21:57.498Z,19.20
2022-10-16T16:26:51.069Z,19.20
2022-10-16T16:31:44.665Z,19.10
2022-10-16T16:36:40.465Z,18.90
2022-10-16T16:41:34.001Z,18.70
2022-10-16T16:46:28.003Z,18.50
2022-10-16T16:51:24.829Z,18.40
2022-10-16T16:56:18.684Z,18.30
2022-10-16T17:01:20.801Z,18.10
2022-10-16T17:06:21.205Z,18.00
2022-10-16T17:11:24.867Z,17.90
2022-10-16T17:16:23.942Z,17.70
2022-10-16T17:21:28.448Z,17.60
2022-10-16T17:26:25.178Z,17.50
2022-10-16T17:31:22.313Z,17.40
2022-10-16T17:36:19.953Z,17.40
2022-10-16T17:41:33.135Z,17.30
2022-10-16T17:46:39.955Z,17.10
2022-10-16T17:51:34.827Z,17.00
2022-10-16T17:56:29.122Z,17.00
2022-10-16T18:01:47.148Z,16.90
2022-10-16T18:06:43.840Z,16.90
2022-10-16T18:11:39.533Z,16.80
2022-10-16T18:16:40.570Z,16.70
2022-10-16T18:21:39.393Z,16.70
2022-10-16T18:26:41.367Z,16.70
2022-10-16T18:31:40.473Z,16.70
2022-10-16T18:36:56.532Z,16.70
2022-10-16T18:42:04.452Z,16.80
2022-10-16T18:47:03.261Z,16.90
2022-10-16T18:57:48.723Z,16.80
2022-10-16T19:02:47.481Z,16.60
2022-10-16T19:07:50.938Z,16.50
2022-10-16T19:18:43.225Z,16.30
2022-10-16T19:24:38.669Z,16.20
2022-10-16T19:29:53.355Z,16.40
2022-10-16T19:41:30.602Z,16.50
2022-10-16T19:47:04.523Z,16.40
2022-10-16T20:03:49.686Z,16.60
2022-10-16T20:09:09.314Z,16.70
2022-10-16T20:14:46.541Z,16.80
2022-10-16T20:20:59.896Z,16.80
2022-10-16T20:36:55.464Z,16.80
2022-10-16T20:41:51.091Z,16.80
2022-10-16T20:46:56.592Z,16.70
2022-10-16T20:51:50.283Z,16.60
2022-10-16T20:56:49.135Z,16.60
2022-10-16T21:01:44.623Z,16.50
2022-10-16T21:06:40.652Z,16.40
2022-10-16T21:11:36.841Z,16.20
2022-10-16T21:16:29.986Z,15.90
2022-10-16T21:21:32.717Z,15.70
2022-10-16T21:26:55.143Z,15.60
2022-10-16T21:31:53.729Z,15.50
2022-10-16T21:36:49.466Z,15.30
2022-10-16T21:41:44.852Z,15.20
2022-10-16T21:46:40.894Z,15.10
2022-10-16T21:51:36.522Z,15.00
2022-10-16T21:56:29.684Z,14.90
2022-10-16T22:01:24.700Z,14.80
2022-10-16T22:11:28.836Z,14.60
2022-10-16T22:16:26.116Z,14.60
2022-10-16T22:21:18.662Z,14.50
2022-10-16T22:26:14.504Z,14.50
2022-10-16T22:31:09.734Z,14.50
2022-10-16T22:36:07.687Z,14.40
2022-10-16T22:41:05.267Z,14.30
2022-10-16T22:46:09.576Z,14.30
2022-10-16T22:51:03.488Z,14.20
2022-10-16T22:55:58.875Z,14.20
2022-10-16T23:00:58.984Z,14.10
2022-10-16T23:05:51.805Z,14.10
2022-10-16T23:10:46.884Z,14.00
2022-10-16T23:15:41.169Z,14.10
2022-10-16T23:20:33.745Z,14.00
2022-10-16T23:25:26.132Z,14.10
2022-10-16T23:30:18.547Z,14.10
2022-10-16T23:35:11.386Z,14.10
2022-10-16T23:40:04.673Z,14.10
2022-10-16T23:44:57.200Z,14.10
2022-10-16T23:49:50.076Z,14.00
2022-10-16T23:54:42.508Z,14.00
2022-10-16T23:59:35.557Z,13.90
